< < Back
Terminal Aerodrome Forecast


Current Version              Previous Versions:   1  2  3  4  5  6  7  8  9  

Terminal Aerodrome Forecast

410
FTUS44 KBMX 202300
TAFTCL
TAF
KTCL 202339Z 2100/2124 00000KT P6SM FEW120=

Latest METAR

057
SAUS70 KWBC 210400 RRG
MTRTCL
METAR KTCL 210353Z AUTO 00000KT 10SM CLR 13/11 A3004 RMK AO2 SLP172
T01280111


USA.gov is the U.S. government's official web portal to all federal, state and local government web resources and services.